Terminal Aerodrome Forecast
Issued by NWS

Home | Current Version | Previous Version | Text Only | Print | Product List | Glossary On
Versions: 1 2 3 4 5 6 7 8 9 10 11 12 13 14 15 16 17 18
000
FTUS46 KSGX 251100
TAFONT
TAF
KONT 251136Z 2512/2618 05015G30KT P6SM SKC
     FM260000 36010G20KT P6SM SCT200
     FM261500 03010KT P6SM VCSH BKN050=

USA.gov is the U.S. government's official web portal to all federal, state and local government web resources and services.